createdAt,value
2022-11-29T00:01:45.271Z,21.93
2022-11-29T00:04:13.945Z,21.77
2022-11-29T00:06:42.469Z,23.83
2022-11-29T00:09:14.296Z,23.03
2022-11-29T00:12:01.740Z,22.87
2022-11-29T00:14:31.046Z,23.50
2022-11-29T00:17:02.827Z,23.17
2022-11-29T00:19:32.862Z,23.33
2022-11-29T00:22:02.815Z,22.90
2022-11-29T00:24:32.719Z,22.20
2022-11-29T00:27:02.559Z,21.97
2022-11-29T00:29:31.662Z,21.77
2022-11-29T00:32:01.810Z,21.97
2022-11-29T00:34:30.506Z,21.60
2022-11-29T00:36:59.206Z,21.57
2022-11-29T00:39:27.969Z,21.80
2022-11-29T00:41:56.585Z,21.60
2022-11-29T00:44:25.310Z,22.57
2022-11-29T00:46:53.850Z,22.50
2022-11-29T00:49:23.825Z,22.57
2022-11-29T00:51:52.661Z,22.90
2022-11-29T00:54:21.220Z,23.30
2022-11-29T00:56:49.747Z,23.67
2022-11-29T00:59:18.253Z,22.83
2022-11-29T01:01:46.967Z,23.10
2022-11-29T01:04:15.719Z,24.43
2022-11-29T01:06:45.640Z,25.40
2022-11-29T01:09:14.268Z,29.83
2022-11-29T01:11:42.874Z,32.93
2022-11-29T01:14:14.489Z,30.07
2022-11-29T01:16:43.259Z,34.40
2022-11-29T01:19:12.066Z,33.80
2022-11-29T01:21:41.331Z,31.03
2022-11-29T01:24:11.499Z,27.63
2022-11-29T01:26:40.182Z,27.27
2022-11-29T01:29:08.775Z,26.53
2022-11-29T01:31:37.429Z,27.97
2022-11-29T01:34:08.323Z,28.47
2022-11-29T01:36:37.313Z,29.90
2022-11-29T01:39:07.687Z,29.33
2022-11-29T01:41:38.853Z,29.87
2022-11-29T01:44:47.288Z,30.17
2022-11-29T01:47:16.985Z,29.70
2022-11-29T01:49:49.549Z,31.03
2022-11-29T01:52:23.782Z,34.00
2022-11-29T01:54:57.638Z,35.10
2022-11-29T01:57:28.514Z,31.83
2022-11-29T02:00:08.846Z,30.43
2022-11-29T02:02:43.115Z,36.07
2022-11-29T02:05:14.100Z,32.93
2022-11-29T02:07:47.161Z,35.90
2022-11-29T02:10:17.650Z,30.67
2022-11-29T02:13:10.526Z,33.10
2022-11-29T02:15:49.649Z,35.93
2022-11-29T02:18:30.902Z,33.27
2022-11-29T02:21:21.649Z,32.87
2022-11-29T02:24:36.373Z,35.33
2022-11-29T02:27:35.396Z,32.77
2022-11-29T02:30:34.678Z,34.33
2022-11-29T02:33:51.505Z,35.73
2022-11-29T02:37:19.908Z,35.43
2022-11-29T02:40:18.098Z,35.80
2022-11-29T02:43:18.635Z,34.20
2022-11-29T02:46:05.114Z,34.77
2022-11-29T02:48:59.248Z,36.47
2022-11-29T02:51:42.709Z,36.33
2022-11-29T02:54:20.515Z,38.23
2022-11-29T02:56:58.210Z,37.40
2022-11-29T02:59:47.867Z,38.47
2022-11-29T03:02:28.608Z,36.73
2022-11-29T03:05:13.942Z,35.83
2022-11-29T03:07:54.802Z,35.10
2022-11-29T03:10:36.011Z,37.03
2022-11-29T03:13:13.136Z,36.03
2022-11-29T03:15:59.035Z,35.10
2022-11-29T03:18:43.113Z,33.47
2022-11-29T03:21:29.028Z,34.03
2022-11-29T03:24:02.615Z,37.10
2022-11-29T03:26:39.425Z,34.90
2022-11-29T03:29:16.679Z,35.33
2022-11-29T03:31:52.461Z,34.13
2022-11-29T03:34:36.978Z,34.93
2022-11-29T03:37:16.990Z,34.37
2022-11-29T03:39:54.243Z,33.83
2022-11-29T03:42:30.013Z,33.37
2022-11-29T03:45:06.995Z,32.00
2022-11-29T03:47:44.223Z,34.77
2022-11-29T03:50:20.434Z,33.40
2022-11-29T03:52:55.904Z,32.53
2022-11-29T03:55:50.289Z,33.23
2022-11-29T03:58:49.667Z,31.97
2022-11-29T04:02:09.111Z,31.33
2022-11-29T04:05:26.648Z,30.77
2022-11-29T04:08:21.901Z,32.07
2022-11-29T04:11:19.373Z,31.37
2022-11-29T04:14:32.799Z,30.53
2022-11-29T04:17:46.952Z,29.63
2022-11-29T04:20:51.354Z,30.07
2022-11-29T04:24:14.518Z,31.00
2022-11-29T04:27:36.356Z,31.40
2022-11-29T04:30:17.787Z,29.67
2022-11-29T04:33:47.926Z,30.90
2022-11-29T04:36:53.778Z,27.83
2022-11-29T04:39:58.311Z,29.37
2022-11-29T04:43:17.716Z,28.17
2022-11-29T04:46:22.975Z,28.67
2022-11-29T04:49:11.458Z,28.37
2022-11-29T04:52:07.028Z,36.37
2022-11-29T04:54:46.166Z,30.37
2022-11-29T04:57:28.595Z,28.53
2022-11-29T05:00:09.959Z,29.17
2022-11-29T05:02:51.739Z,27.40
2022-11-29T05:05:34.372Z,36.47
2022-11-29T05:08:30.331Z,26.70
2022-11-29T05:11:11.856Z,25.40
2022-11-29T05:13:54.409Z,26.00
2022-11-29T05:16:46.021Z,27.23
2022-11-29T05:19:47.807Z,27.40
2022-11-29T05:22:32.855Z,28.30
2022-11-29T05:25:28.703Z,25.67
2022-11-29T05:28:10.285Z,27.97
2022-11-29T05:31:07.795Z,26.67
2022-11-29T05:34:17.706Z,29.03
2022-11-29T05:36:59.899Z,24.70
2022-11-29T05:39:43.926Z,25.27
2022-11-29T05:42:49.578Z,29.13
2022-11-29T05:45:26.751Z,32.53
2022-11-29T05:48:05.758Z,28.97
2022-11-29T05:50:43.218Z,28.70
2022-11-29T05:53:24.817Z,29.43
2022-11-29T05:56:06.707Z,26.33
2022-11-29T05:58:55.568Z,25.43
2022-11-29T06:01:27.333Z,27.00
2022-11-29T06:04:07.980Z,27.10
2022-11-29T06:06:50.638Z,25.70
2022-11-29T06:09:28.509Z,26.00
2022-11-29T06:12:05.397Z,25.03
2022-11-29T06:15:13.821Z,25.60
2022-11-29T06:18:11.134Z,25.57
2022-11-29T06:21:00.785Z,25.60
2022-11-29T06:24:10.307Z,27.00
2022-11-29T06:27:07.818Z,28.60
2022-11-29T06:29:50.486Z,28.23
2022-11-29T06:32:30.644Z,27.87
2022-11-29T06:35:06.055Z,27.93
2022-11-29T06:37:40.383Z,27.83
2022-11-29T06:40:15.937Z,27.50
2022-11-29T06:42:44.691Z,24.50
2022-11-29T06:45:16.021Z,25.10
2022-11-29T06:47:51.166Z,24.20
2022-11-29T06:50:38.727Z,26.30
2022-11-29T06:53:19.614Z,23.47
2022-11-29T06:56:00.697Z,23.93
2022-11-29T06:58:56.107Z,24.77
2022-11-29T07:01:38.144Z,23.80
2022-11-29T07:04:31.207Z,26.60
2022-11-29T07:07:00.729Z,31.27
2022-11-29T07:09:35.725Z,25.00
2022-11-29T07:12:06.724Z,31.53
2022-11-29T07:14:36.520Z,25.43
2022-11-29T07:17:16.610Z,25.83
2022-11-29T07:19:59.365Z,25.43
2022-11-29T07:22:57.003Z,23.90
2022-11-29T07:25:44.006Z,23.83
2022-11-29T07:28:30.405Z,22.90
2022-11-29T07:31:12.413Z,25.03
2022-11-29T07:33:53.849Z,26.27
2022-11-29T07:36:40.311Z,24.17
2022-11-29T07:39:26.178Z,22.53
2022-11-29T07:42:07.943Z,23.37
2022-11-29T07:44:47.464Z,24.37
2022-11-29T07:47:16.273Z,25.80
2022-11-29T07:49:44.899Z,27.00
2022-11-29T07:52:15.670Z,23.57
2022-11-29T07:54:44.722Z,23.40
2022-11-29T07:57:13.509Z,24.57
2022-11-29T07:59:43.968Z,22.63
2022-11-29T08:02:13.016Z,22.33
2022-11-29T08:04:45.474Z,22.47
2022-11-29T08:07:14.271Z,21.83
2022-11-29T08:09:43.044Z,22.20
2022-11-29T08:12:11.714Z,22.80
2022-11-29T08:14:40.275Z,21.97
2022-11-29T08:17:10.487Z,23.47
2022-11-29T08:19:39.327Z,24.73
2022-11-29T08:22:07.905Z,26.77
2022-11-29T08:24:36.507Z,28.87
2022-11-29T08:27:05.341Z,28.33
2022-11-29T08:29:33.883Z,24.93
2022-11-29T08:32:02.431Z,25.03
2022-11-29T08:34:32.558Z,22.50
2022-11-29T08:37:01.101Z,21.30
2022-11-29T08:39:29.687Z,21.47
2022-11-29T08:41:58.211Z,21.40
2022-11-29T08:44:26.735Z,23.77
2022-11-29T08:47:12.912Z,23.13
2022-11-29T08:49:56.867Z,20.53
2022-11-29T08:52:42.947Z,22.50
2022-11-29T08:55:11.584Z,19.90
2022-11-29T08:57:41.130Z,23.13
2022-11-29T09:00:12.573Z,21.33
2022-11-29T09:02:41.592Z,22.03
2022-11-29T09:05:13.149Z,21.90
2022-11-29T09:07:42.231Z,21.07
2022-11-29T09:10:12.599Z,21.27
2022-11-29T09:12:42.843Z,24.57
2022-11-29T09:15:12.886Z,22.70
2022-11-29T09:17:41.561Z,22.93
2022-11-29T09:20:13.283Z,27.50
2022-11-29T09:22:41.944Z,22.20
2022-11-29T09:25:10.744Z,22.97
2022-11-29T09:27:41.853Z,22.60
2022-11-29T09:30:12.030Z,23.87
2022-11-29T09:32:40.603Z,21.60
2022-11-29T09:35:11.065Z,20.93
2022-11-29T09:37:43.327Z,21.97
2022-11-29T09:40:20.910Z,23.40
2022-11-29T09:43:01.903Z,23.13
2022-11-29T09:45:37.183Z,24.20
2022-11-29T09:48:42.659Z,21.43
2022-11-29T09:51:25.231Z,22.17
2022-11-29T09:54:12.899Z,22.37
2022-11-29T09:56:47.044Z,23.47
2022-11-29T09:59:22.884Z,21.23
2022-11-29T10:02:00.950Z,22.27
2022-11-29T10:04:36.829Z,22.87
2022-11-29T10:07:18.243Z,21.20
2022-11-29T10:09:53.164Z,21.93
2022-11-29T10:12:32.021Z,21.73
2022-11-29T10:15:09.610Z,21.20
2022-11-29T10:17:45.670Z,23.50
2022-11-29T10:20:20.076Z,25.47
2022-11-29T10:22:56.267Z,31.03
2022-11-29T10:25:29.008Z,21.20
2022-11-29T10:27:57.650Z,21.30
2022-11-29T10:30:26.257Z,28.43
2022-11-29T10:33:01.378Z,22.07
2022-11-29T10:35:30.645Z,20.80
2022-11-29T10:38:29.588Z,21.13
2022-11-29T10:41:02.079Z,20.80
2022-11-29T10:43:30.664Z,20.83
2022-11-29T10:46:02.608Z,20.60
2022-11-29T10:48:35.717Z,21.93
2022-11-29T10:51:04.371Z,21.73
2022-11-29T10:53:38.356Z,19.30
2022-11-29T10:56:15.078Z,20.20
2022-11-29T10:58:58.677Z,23.50
2022-11-29T11:01:30.365Z,26.13
2022-11-29T11:04:03.326Z,22.10
2022-11-29T11:06:47.868Z,20.47
2022-11-29T11:09:24.592Z,19.63
2022-11-29T11:11:55.833Z,19.23
2022-11-29T11:14:26.976Z,20.25
2022-11-29T11:16:55.883Z,19.37
2022-11-29T11:19:31.531Z,19.50
2022-11-29T11:22:03.089Z,18.90
2022-11-29T11:24:37.242Z,19.03
2022-11-29T11:27:06.000Z,17.93
2022-11-29T11:29:40.227Z,20.50
2022-11-29T11:32:18.883Z,17.97
2022-11-29T11:34:54.476Z,18.03
2022-11-29T11:37:27.786Z,18.40
2022-11-29T11:40:00.873Z,18.90
2022-11-29T11:42:38.386Z,21.10
2022-11-29T11:45:31.107Z,19.23
2022-11-29T11:48:05.732Z,20.43
2022-11-29T11:50:42.171Z,21.60
2022-11-29T11:53:23.595Z,22.60
2022-11-29T11:56:01.941Z,18.70
2022-11-29T11:58:33.704Z,26.63
2022-11-29T12:01:24.508Z,23.27
2022-11-29T12:04:05.604Z,23.87
2022-11-29T12:06:48.004Z,30.33
2022-11-29T12:09:29.540Z,29.50
2022-11-29T12:12:10.521Z,24.40
2022-11-29T12:14:54.553Z,23.50
2022-11-29T12:17:36.108Z,22.63
2022-11-29T12:20:26.561Z,23.27
2022-11-29T12:23:20.730Z,20.70
2022-11-29T12:25:56.964Z,19.93
2022-11-29T12:28:31.523Z,19.40
2022-11-29T12:31:15.590Z,19.80
2022-11-29T12:33:56.642Z,19.33
2022-11-29T12:36:41.706Z,19.80
2022-11-29T12:39:35.302Z,21.63
2022-11-29T12:42:23.878Z,20.30
2022-11-29T12:45:03.481Z,19.00
2022-11-29T12:47:51.898Z,27.67
2022-11-29T12:50:44.840Z,25.83
2022-11-29T12:53:33.967Z,24.63
2022-11-29T12:56:15.982Z,20.83
2022-11-29T12:59:14.160Z,21.37
2022-11-29T13:02:04.190Z,19.63
2022-11-29T13:04:46.771Z,22.53
2022-11-29T13:07:31.067Z,21.83
2022-11-29T13:10:33.965Z,23.00
2022-11-29T13:13:21.844Z,26.17
2022-11-29T13:16:03.612Z,24.67
2022-11-29T13:18:42.427Z,23.67
2022-11-29T13:21:17.156Z,27.73
2022-11-29T13:24:13.692Z,25.97
2022-11-29T13:26:44.310Z,24.07
2022-11-29T13:29:18.470Z,26.87
2022-11-29T13:31:50.038Z,25.53
2022-11-29T13:34:25.988Z,25.47
2022-11-29T13:37:09.069Z,27.30
2022-11-29T13:39:58.155Z,28.30
2022-11-29T13:42:38.857Z,29.70
2022-11-29T13:45:20.261Z,31.03
2022-11-29T13:47:54.025Z,29.83
2022-11-29T13:50:48.289Z,36.33
2022-11-29T13:53:19.517Z,36.43
2022-11-29T13:55:59.953Z,30.10
2022-11-29T13:58:40.163Z,32.27
2022-11-29T14:01:11.665Z,32.70
2022-11-29T14:03:42.575Z,31.03
2022-11-29T14:06:21.261Z,33.77
2022-11-29T14:09:27.363Z,31.63
2022-11-29T14:12:06.868Z,33.27
2022-11-29T14:14:48.547Z,36.03
2022-11-29T14:17:36.148Z,35.23
2022-11-29T14:20:55.224Z,33.73
2022-11-29T14:23:41.744Z,32.93
2022-11-29T14:26:29.296Z,32.57
2022-11-29T14:29:00.140Z,33.77
2022-11-29T14:31:56.865Z,35.70
2022-11-29T14:34:51.954Z,35.83
2022-11-29T14:37:42.322Z,35.03
2022-11-29T14:40:28.815Z,29.47
2022-11-29T14:42:57.517Z,28.50
2022-11-29T14:45:31.671Z,27.53
2022-11-29T14:48:01.729Z,33.93
2022-11-29T14:50:37.710Z,29.77
2022-11-29T14:53:08.351Z,29.03
2022-11-29T14:55:39.919Z,28.87
2022-11-29T14:58:21.922Z,28.70
2022-11-29T15:01:10.356Z,29.87
2022-11-29T15:03:49.659Z,27.40
2022-11-29T15:06:30.346Z,26.90
2022-11-29T15:09:05.759Z,27.70
2022-11-29T15:11:50.934Z,28.93
2022-11-29T15:14:32.650Z,29.83
2022-11-29T15:17:28.049Z,28.47
2022-11-29T15:20:36.263Z,26.43
2022-11-29T15:23:09.938Z,27.77
2022-11-29T15:25:49.093Z,27.77
2022-11-29T15:28:24.821Z,28.20
2022-11-29T15:31:05.850Z,27.03
2022-11-29T15:33:37.309Z,28.10
2022-11-29T15:36:09.414Z,28.00
2022-11-29T15:38:46.504Z,29.33
2022-11-29T15:41:22.894Z,32.63
2022-11-29T15:44:01.845Z,29.27
2022-11-29T15:46:33.690Z,29.87
2022-11-29T15:49:18.816Z,29.30
2022-11-29T15:51:54.351Z,27.37
2022-11-29T15:54:32.342Z,27.83
2022-11-29T15:57:06.032Z,27.50
2022-11-29T15:59:44.109Z,27.57
2022-11-29T16:02:22.680Z,26.33
2022-11-29T16:04:58.267Z,26.30
2022-11-29T16:07:32.345Z,27.17
2022-11-29T16:10:11.754Z,26.53
2022-11-29T16:12:54.145Z,25.17
2022-11-29T16:15:32.091Z,25.67
2022-11-29T16:18:06.065Z,26.00
2022-11-29T16:20:34.885Z,27.50
2022-11-29T16:23:11.524Z,26.63
2022-11-29T16:25:56.557Z,25.87
2022-11-29T16:28:36.344Z,26.27
2022-11-29T16:31:06.601Z,25.10
2022-11-29T16:33:35.152Z,26.47
2022-11-29T16:36:16.099Z,24.90
2022-11-29T16:38:48.820Z,24.47
2022-11-29T16:41:34.033Z,25.23
2022-11-29T16:44:05.109Z,24.43
2022-11-29T16:46:40.790Z,26.20
2022-11-29T16:49:36.595Z,26.60
2022-11-29T16:52:25.219Z,27.27
2022-11-29T16:54:54.224Z,26.30
2022-11-29T16:57:23.711Z,26.60
2022-11-29T16:59:52.700Z,25.30
2022-11-29T17:02:22.813Z,26.00
2022-11-29T17:04:52.622Z,24.67
2022-11-29T17:07:30.707Z,25.37
2022-11-29T17:10:00.618Z,25.97
2022-11-29T17:12:29.213Z,25.27
2022-11-29T17:14:57.792Z,26.37
2022-11-29T17:17:27.792Z,26.07
2022-11-29T17:19:56.499Z,25.00
2022-11-29T17:22:25.157Z,24.53
2022-11-29T17:24:54.274Z,24.37
2022-11-29T17:27:23.014Z,25.07
2022-11-29T17:29:51.538Z,24.73
2022-11-29T17:32:26.539Z,26.00
2022-11-29T17:34:57.190Z,24.50
2022-11-29T17:37:25.762Z,25.43
2022-11-29T17:39:54.332Z,25.13
2022-11-29T17:42:22.881Z,27.83
2022-11-29T17:44:51.567Z,27.03
2022-11-29T17:47:20.226Z,28.53
2022-11-29T17:49:49.074Z,30.43
2022-11-29T17:52:19.235Z,29.07
2022-11-29T17:54:48.115Z,28.37
2022-11-29T17:57:17.304Z,27.13
2022-11-29T17:59:46.136Z,26.87
2022-11-29T18:02:15.043Z,25.80
2022-11-29T18:04:44.522Z,27.27
2022-11-29T18:07:15.948Z,26.47
2022-11-29T18:09:47.575Z,26.30
2022-11-29T18:12:16.597Z,26.43
2022-11-29T18:14:45.214Z,25.70
2022-11-29T18:17:13.858Z,27.00
2022-11-29T18:19:42.568Z,25.47
2022-11-29T18:22:11.196Z,25.83
2022-11-29T18:24:43.515Z,26.13
2022-11-29T18:27:13.588Z,24.97
2022-11-29T18:29:42.187Z,25.73
2022-11-29T18:32:10.966Z,24.90
2022-11-29T18:34:39.595Z,28.63
2022-11-29T18:37:12.416Z,28.20
2022-11-29T18:39:45.009Z,26.20
2022-11-29T18:42:15.308Z,25.70
2022-11-29T18:44:44.217Z,24.93
2022-11-29T18:47:13.198Z,29.33
2022-11-29T18:49:41.782Z,28.67
2022-11-29T18:52:10.418Z,27.10
2022-11-29T18:54:39.034Z,26.77
2022-11-29T18:57:07.797Z,27.20
2022-11-29T18:59:37.834Z,26.50
2022-11-29T19:02:06.453Z,27.27
2022-11-29T19:04:36.820Z,26.63
2022-11-29T19:07:05.703Z,25.57
2022-11-29T19:09:34.267Z,25.77
2022-11-29T19:12:03.879Z,26.10
2022-11-29T19:14:33.936Z,25.03
2022-11-29T19:17:03.914Z,25.20
2022-11-29T19:19:32.978Z,25.20
2022-11-29T19:22:01.628Z,25.10
2022-11-29T19:24:30.201Z,25.37
2022-11-29T19:27:01.117Z,25.57
2022-11-29T19:29:29.797Z,24.90
2022-11-29T19:31:58.412Z,28.03
2022-11-29T19:34:28.709Z,25.77
2022-11-29T19:36:57.334Z,25.97
2022-11-29T19:39:26.133Z,24.87
2022-11-29T19:41:54.787Z,24.60
2022-11-29T19:44:29.178Z,25.93
2022-11-29T19:46:59.369Z,25.40
2022-11-29T19:49:29.322Z,26.10
2022-11-29T19:51:58.022Z,25.30
2022-11-29T19:54:26.996Z,25.27
2022-11-29T19:56:55.829Z,25.17
2022-11-29T19:59:24.551Z,25.40
2022-11-29T20:01:53.201Z,24.53
2022-11-29T20:04:22.120Z,24.57
2022-11-29T20:06:54.534Z,23.80
2022-11-29T20:09:23.484Z,23.03
2022-11-29T20:11:52.206Z,23.83
2022-11-29T20:14:20.790Z,22.90
2022-11-29T20:16:49.410Z,25.50
2022-11-29T20:19:18.961Z,25.50
2022-11-29T20:21:51.343Z,25.43
2022-11-29T20:24:20.535Z,25.20
2022-11-29T20:26:50.601Z,27.57
2022-11-29T20:29:21.580Z,26.60
2022-11-29T20:31:51.351Z,25.33
2022-11-29T20:34:21.543Z,27.23
2022-11-29T20:37:53.686Z,25.73
2022-11-29T20:40:29.264Z,24.03
2022-11-29T20:43:12.512Z,23.83
2022-11-29T20:45:41.875Z,22.10
2022-11-29T20:48:19.104Z,24.20
2022-11-29T20:51:00.249Z,22.53
2022-11-29T20:53:37.208Z,22.73
2022-11-29T20:56:07.302Z,22.80
2022-11-29T20:58:37.088Z,22.77
2022-11-29T21:01:07.463Z,23.57
2022-11-29T21:03:36.392Z,24.17
2022-11-29T21:06:07.569Z,24.33
2022-11-29T21:08:37.807Z,24.30
2022-11-29T21:11:10.339Z,25.10
2022-11-29T21:13:39.937Z,24.73
2022-11-29T21:16:11.192Z,25.30
2022-11-29T21:18:41.174Z,25.73
2022-11-29T21:21:23.718Z,23.93
2022-11-29T21:24:06.820Z,26.23
2022-11-29T21:26:42.145Z,24.90
2022-11-29T21:29:18.814Z,25.37
2022-11-29T21:31:50.157Z,25.40
2022-11-29T21:34:19.309Z,24.47
2022-11-29T21:36:53.950Z,24.50
2022-11-29T21:39:27.923Z,25.57
2022-11-29T21:41:56.438Z,24.20
2022-11-29T21:44:25.064Z,23.43
2022-11-29T21:46:53.655Z,25.13
2022-11-29T21:49:22.250Z,25.90
2022-11-29T21:51:51.478Z,26.30
2022-11-29T21:54:20.033Z,25.40
2022-11-29T21:56:50.057Z,26.50
2022-11-29T21:59:18.618Z,27.07
2022-11-29T22:01:47.257Z,25.77
2022-11-29T22:04:15.908Z,25.37
2022-11-29T22:06:44.507Z,25.63
2022-11-29T22:09:13.082Z,24.07
2022-11-29T22:11:42.374Z,24.37
2022-11-29T22:14:16.053Z,26.03
2022-11-29T22:16:47.574Z,26.33
2022-11-29T22:19:19.106Z,26.10
2022-11-29T22:21:51.072Z,28.00
2022-11-29T22:24:22.481Z,27.47
2022-11-29T22:26:52.882Z,27.60
2022-11-29T22:29:24.585Z,28.30
2022-11-29T22:31:56.682Z,28.13
2022-11-29T22:34:27.994Z,28.70
2022-11-29T22:36:56.736Z,27.97
2022-11-29T22:39:25.744Z,26.10
2022-11-29T22:41:55.323Z,26.57
2022-11-29T22:44:25.945Z,26.90
2022-11-29T22:46:54.661Z,24.80
2022-11-29T22:49:23.313Z,23.83
2022-11-29T22:51:52.380Z,24.77
2022-11-29T22:54:21.021Z,24.83
2022-11-29T22:56:49.581Z,24.27
2022-11-29T22:59:18.129Z,25.07
2022-11-29T23:01:48.212Z,25.03
2022-11-29T23:04:16.883Z,23.67
2022-11-29T23:06:47.158Z,24.13
2022-11-29T23:09:20.027Z,25.63
2022-11-29T23:11:53.059Z,24.07
2022-11-29T23:14:22.511Z,24.80
2022-11-29T23:16:53.253Z,25.37
2022-11-29T23:19:22.284Z,23.83
2022-11-29T23:21:51.094Z,27.37
2022-11-29T23:24:19.678Z,24.03
2022-11-29T23:26:49.153Z,25.00
2022-11-29T23:29:20.483Z,23.77
2022-11-29T23:31:49.849Z,22.67
2022-11-29T23:34:20.156Z,25.13
2022-11-29T23:36:52.944Z,25.17
2022-11-29T23:39:22.068Z,24.33
2022-11-29T23:41:50.643Z,24.03
2022-11-29T23:44:19.219Z,25.03
2022-11-29T23:46:47.873Z,24.30
2022-11-29T23:49:16.357Z,25.40
2022-11-29T23:51:46.305Z,25.10
2022-11-29T23:54:14.892Z,25.57
2022-11-29T23:56:43.621Z,24.27
2022-11-29T23:59:12.128Z,24.97
